createdAt,value
2019-01-21T00:00:12.171Z,12.38
2019-01-21T00:02:40.518Z,13.78
2019-01-21T00:05:08.914Z,11.10
2019-01-21T00:07:37.301Z,12.20
2019-01-21T00:10:07.092Z,11.63
2019-01-21T00:12:35.448Z,11.83
2019-01-21T00:15:06.455Z,12.53
2019-01-21T00:17:34.824Z,12.50
2019-01-21T00:20:04.674Z,12.43
2019-01-21T00:22:33.042Z,11.93
2019-01-21T00:25:01.364Z,12.57
2019-01-21T00:27:29.781Z,12.87
2019-01-21T00:29:58.123Z,10.80
2019-01-21T00:32:26.481Z,12.03
2019-01-21T00:34:54.875Z,12.25
2019-01-21T00:37:23.297Z,11.37
2019-01-21T00:39:51.655Z,13.47
2019-01-21T00:42:20.014Z,12.40
2019-01-21T00:44:48.365Z,12.58
2019-01-21T00:47:16.871Z,11.00
2019-01-21T00:49:45.218Z,13.10
2019-01-21T00:52:13.665Z,11.10
2019-01-21T00:54:42.044Z,13.18
2019-01-21T00:57:10.924Z,12.43
2019-01-21T00:59:39.305Z,12.70
2019-01-21T01:02:07.655Z,12.03
2019-01-21T01:04:35.993Z,12.75
2019-01-21T01:07:04.453Z,12.03
2019-01-21T01:09:32.822Z,13.23
2019-01-21T01:12:01.204Z,12.77
2019-01-21T01:14:29.565Z,12.97
2019-01-21T01:16:57.959Z,12.10
2019-01-21T01:19:26.335Z,12.53
2019-01-21T01:21:54.768Z,12.53
2019-01-21T01:24:23.210Z,11.77
2019-01-21T01:26:51.557Z,13.53
2019-01-21T01:29:19.977Z,13.00
2019-01-21T01:31:48.394Z,12.10
2019-01-21T01:34:16.752Z,11.65
2019-01-21T01:36:45.125Z,13.87
2019-01-21T01:39:13.493Z,12.50
2019-01-21T01:41:41.910Z,13.55
2019-01-21T01:44:10.888Z,12.60
2019-01-21T01:46:39.280Z,12.13
2019-01-21T01:49:07.627Z,11.90
2019-01-21T01:51:36.082Z,13.07
2019-01-21T01:54:04.655Z,12.10
2019-01-21T01:56:33.050Z,12.93
2019-01-21T01:59:01.562Z,13.00
2019-01-21T02:01:29.909Z,13.38
2019-01-21T02:03:58.275Z,12.73
2019-01-21T02:06:26.653Z,12.13
2019-01-21T02:08:54.986Z,12.13
2019-01-21T02:11:23.475Z,13.00
2019-01-21T02:13:52.182Z,12.93
2019-01-21T02:16:20.673Z,13.03
2019-01-21T02:18:48.981Z,12.57
2019-01-21T02:21:18.904Z,12.47
2019-01-21T02:23:51.196Z,13.28
2019-01-21T02:26:19.912Z,10.80
2019-01-21T02:28:54.573Z,13.20
2019-01-21T02:31:28.352Z,12.85
2019-01-21T02:34:01.974Z,13.67
2019-01-21T02:36:36.239Z,12.60
2019-01-21T02:39:06.330Z,12.68
2019-01-21T02:41:36.213Z,12.87
2019-01-21T02:44:10.178Z,13.27
2019-01-21T02:46:44.999Z,12.60
2019-01-21T02:49:18.754Z,12.63
2019-01-21T02:51:52.457Z,12.10
2019-01-21T02:54:28.268Z,13.67
2019-01-21T02:57:01.665Z,13.10
2019-01-21T02:59:35.578Z,11.60
2019-01-21T03:02:08.397Z,13.28
2019-01-21T03:04:45.219Z,11.83
2019-01-21T03:07:16.580Z,11.90
2019-01-21T03:09:49.274Z,13.70
2019-01-21T03:12:19.255Z,11.75
2019-01-21T03:14:52.105Z,12.93
2019-01-21T03:17:29.147Z,13.98
2019-01-21T03:20:03.820Z,13.27
2019-01-21T03:22:38.683Z,12.65
2019-01-21T03:25:11.867Z,13.57
2019-01-21T03:27:46.027Z,12.20
2019-01-21T03:30:17.871Z,12.73
2019-01-21T03:32:51.586Z,13.20
2019-01-21T03:35:25.193Z,13.55
2019-01-21T03:37:58.224Z,13.50
2019-01-21T03:40:32.882Z,14.00
2019-01-21T03:43:05.992Z,14.00
2019-01-21T03:45:38.805Z,12.43
2019-01-21T03:48:16.647Z,12.77
2019-01-21T03:50:49.743Z,12.80
2019-01-21T03:53:21.248Z,13.93
2019-01-21T03:55:53.321Z,12.57
2019-01-21T03:58:25.050Z,14.13
2019-01-21T04:00:57.855Z,14.15
2019-01-21T04:03:33.591Z,13.57
2019-01-21T04:06:06.251Z,13.80
2019-01-21T04:08:39.320Z,14.98
2019-01-21T04:11:12.967Z,14.00
2019-01-21T04:13:48.886Z,13.90
2019-01-21T04:16:19.560Z,13.40
2019-01-21T04:18:55.238Z,13.50
2019-01-21T04:21:28.996Z,14.10
2019-01-21T04:24:00.926Z,13.10
2019-01-21T04:26:33.884Z,13.07
2019-01-21T04:29:07.690Z,13.50
2019-01-21T04:31:40.598Z,15.10
2019-01-21T04:34:14.490Z,13.87
2019-01-21T04:36:47.661Z,13.63
2019-01-21T04:39:21.472Z,15.20
2019-01-21T04:41:54.649Z,14.20
2019-01-21T04:44:27.555Z,15.75
2019-01-21T04:47:01.424Z,16.40
2019-01-21T04:49:34.171Z,15.23
2019-01-21T04:52:06.997Z,13.80
2019-01-21T04:54:39.697Z,14.77
2019-01-21T04:57:16.582Z,13.73
2019-01-21T04:59:50.477Z,14.90
2019-01-21T05:02:25.143Z,15.30
2019-01-21T05:04:58.996Z,13.67
2019-01-21T05:07:33.809Z,15.20
2019-01-21T05:10:08.710Z,14.47
2019-01-21T05:12:39.750Z,14.73
2019-01-21T05:15:14.557Z,15.35
2019-01-21T05:17:47.426Z,15.40
2019-01-21T05:20:19.278Z,13.90
2019-01-21T05:22:52.938Z,15.98
2019-01-21T05:25:26.679Z,14.47
2019-01-21T05:27:58.606Z,14.90
2019-01-21T05:30:31.516Z,16.42
2019-01-21T05:33:07.288Z,15.90
2019-01-21T05:35:40.265Z,15.60
2019-01-21T05:38:12.201Z,15.23
2019-01-21T05:40:45.978Z,15.83
2019-01-21T05:43:20.711Z,16.20
2019-01-21T05:45:53.561Z,14.70
2019-01-21T05:48:27.410Z,14.90
2019-01-21T05:51:03.433Z,15.07
2019-01-21T05:53:40.018Z,15.23
2019-01-21T05:56:15.679Z,14.40
2019-01-21T05:58:48.879Z,14.93
2019-01-21T06:01:22.138Z,14.73
2019-01-21T06:03:54.919Z,15.32
2019-01-21T06:06:30.580Z,14.60
2019-01-21T06:09:07.581Z,15.00
2019-01-21T06:11:53.584Z,14.93
2019-01-21T06:14:38.541Z,14.50
2019-01-21T06:17:11.674Z,14.98
2019-01-21T06:19:45.012Z,15.23
2019-01-21T06:25:33.721Z,15.97
2019-01-21T06:28:06.135Z,13.83
2019-01-21T06:30:41.963Z,15.20
2019-01-21T06:33:16.049Z,14.63
2019-01-21T06:35:49.870Z,15.50
2019-01-21T06:38:22.708Z,14.17
2019-01-21T06:40:54.558Z,15.67
2019-01-21T06:43:25.519Z,16.20
2019-01-21T06:45:59.118Z,16.20
2019-01-21T06:48:30.232Z,14.87
2019-01-21T06:51:06.623Z,15.17
2019-01-21T06:53:41.545Z,15.57
2019-01-21T06:56:16.282Z,14.80
2019-01-21T06:58:50.997Z,14.97
2019-01-21T07:01:25.076Z,15.40
2019-01-21T07:04:01.750Z,14.07
2019-01-21T07:06:36.802Z,15.97
2019-01-21T07:09:10.159Z,15.60
2019-01-21T07:11:43.355Z,16.00
2019-01-21T07:14:19.581Z,13.73
2019-01-21T07:16:50.706Z,15.70
2019-01-21T07:19:24.551Z,15.73
2019-01-21T07:22:02.466Z,15.93
2019-01-21T07:24:36.432Z,14.73
2019-01-21T07:27:11.135Z,15.15
2019-01-21T07:29:42.272Z,15.00
2019-01-21T07:32:14.857Z,15.00
2019-01-21T07:34:50.566Z,15.10
2019-01-21T07:37:25.255Z,16.00
2019-01-21T07:40:09.652Z,14.03
2019-01-21T07:42:45.442Z,13.83
2019-01-21T07:45:19.150Z,15.40
2019-01-21T07:47:50.805Z,15.30
2019-01-21T07:50:24.676Z,14.60
2019-01-21T07:52:57.305Z,14.70
2019-01-21T07:55:30.290Z,15.60
2019-01-21T07:58:05.059Z,14.98
2019-01-21T08:00:38.548Z,15.00
2019-01-21T08:03:14.177Z,15.90
2019-01-21T08:05:45.857Z,15.20
2019-01-21T08:08:18.712Z,15.08
2019-01-21T08:10:52.618Z,15.27
2019-01-21T08:13:27.381Z,14.90
2019-01-21T08:15:58.354Z,15.83
2019-01-21T08:18:33.078Z,14.40
2019-01-21T08:21:07.092Z,14.77
2019-01-21T08:23:37.374Z,15.13
2019-01-21T08:26:11.051Z,15.03
2019-01-21T08:28:44.614Z,15.80
2019-01-21T08:31:17.320Z,14.70
2019-01-21T08:33:50.864Z,14.55
2019-01-21T08:36:22.613Z,14.27
2019-01-21T08:38:53.542Z,15.30
2019-01-21T08:41:28.349Z,15.70
2019-01-21T08:44:02.152Z,15.10
2019-01-21T08:46:33.944Z,14.67
2019-01-21T08:49:07.212Z,15.60
2019-01-21T08:51:43.928Z,14.97
2019-01-21T08:54:17.114Z,15.65
2019-01-21T08:56:50.837Z,15.90
2019-01-21T08:59:23.755Z,13.93
2019-01-21T09:01:57.829Z,14.40
2019-01-21T09:04:34.765Z,15.18
2019-01-21T09:07:08.542Z,13.58
2019-01-21T09:09:42.293Z,14.33
2019-01-21T09:12:14.057Z,13.90
2019-01-21T09:14:45.665Z,14.43
2019-01-21T09:17:20.561Z,14.00
2019-01-21T09:19:54.193Z,13.73
2019-01-21T09:22:28.005Z,14.13
2019-01-21T09:25:04.276Z,15.00
2019-01-21T09:27:38.542Z,13.50
2019-01-21T09:30:23.451Z,14.23
2019-01-21T09:32:59.130Z,14.20
2019-01-21T09:35:31.693Z,15.13
2019-01-21T09:38:06.917Z,14.47
2019-01-21T09:40:41.614Z,14.37
2019-01-21T09:43:13.504Z,15.40
2019-01-21T09:45:48.259Z,14.03
2019-01-21T09:48:16.154Z,14.20
2019-01-21T09:50:46.118Z,14.43
2019-01-21T09:53:14.597Z,15.25
2019-01-21T09:55:46.861Z,15.00
2019-01-21T09:58:15.235Z,14.90
2019-01-21T10:00:43.790Z,14.20
2019-01-21T10:03:12.634Z,14.50
2019-01-21T10:05:44.901Z,13.20
2019-01-21T10:08:15.947Z,13.50
2019-01-21T10:10:47.025Z,14.57
2019-01-21T10:13:20.136Z,13.80
2019-01-21T10:15:54.779Z,14.10
2019-01-21T10:18:28.450Z,14.37
2019-01-21T10:21:01.461Z,13.63
2019-01-21T10:23:34.400Z,14.43
2019-01-21T10:26:10.241Z,13.18
2019-01-21T10:28:43.273Z,15.90
2019-01-21T10:31:15.613Z,14.63
2019-01-21T10:33:51.966Z,14.70
2019-01-21T10:36:26.681Z,15.27
2019-01-21T10:39:02.685Z,14.87
2019-01-21T10:41:35.666Z,13.57
2019-01-21T10:44:11.417Z,13.47
2019-01-21T10:46:45.257Z,15.13
2019-01-21T10:49:19.982Z,16.17
2019-01-21T10:51:55.732Z,15.50
2019-01-21T10:54:29.375Z,14.40
2019-01-21T10:57:04.161Z,14.20
2019-01-21T10:59:38.932Z,15.27
2019-01-21T11:02:12.750Z,13.50
2019-01-21T11:04:44.665Z,16.60
2019-01-21T11:07:19.655Z,13.18
2019-01-21T11:09:54.613Z,13.30
2019-01-21T11:12:28.137Z,13.97
2019-01-21T11:15:01.369Z,13.97
2019-01-21T11:17:37.015Z,14.20
2019-01-21T11:20:13.687Z,12.33
2019-01-21T11:22:47.083Z,13.15
2019-01-21T11:25:19.935Z,13.30
2019-01-21T11:27:53.739Z,15.20
2019-01-21T11:30:29.480Z,13.70
2019-01-21T11:33:04.195Z,13.27
2019-01-21T11:35:39.026Z,13.88
2019-01-21T11:38:11.831Z,14.13
2019-01-21T11:40:44.777Z,13.33
2019-01-21T11:43:17.439Z,13.67
2019-01-21T11:45:52.762Z,13.08
2019-01-21T11:48:28.557Z,15.33
2019-01-21T11:51:03.276Z,13.97
2019-01-21T11:53:36.179Z,13.80
2019-01-21T11:56:07.436Z,13.17
2019-01-21T11:58:41.318Z,15.47
2019-01-21T12:01:14.235Z,13.87
2019-01-21T12:03:47.045Z,13.17
2019-01-21T12:06:16.924Z,13.03
2019-01-21T12:08:50.675Z,12.90
2019-01-21T12:11:22.467Z,13.07
2019-01-21T12:13:58.342Z,13.50
2019-01-21T12:16:32.290Z,12.73
2019-01-21T12:19:05.137Z,14.10
2019-01-21T12:21:38.565Z,13.25
2019-01-21T12:24:10.853Z,13.17
2019-01-21T12:26:44.696Z,12.78
2019-01-21T12:29:18.667Z,12.70
2019-01-21T12:31:50.428Z,13.73
2019-01-21T12:34:25.175Z,12.45
2019-01-21T12:36:55.901Z,13.33
2019-01-21T12:39:29.868Z,12.50
2019-01-21T12:42:05.939Z,12.35
2019-01-21T12:44:39.600Z,12.70
2019-01-21T12:47:13.334Z,12.50
2019-01-21T12:49:48.079Z,11.77
2019-01-21T12:52:18.681Z,16.53
2019-01-21T12:54:53.441Z,14.60
2019-01-21T12:57:25.980Z,12.80
2019-01-21T13:00:00.785Z,16.48
2019-01-21T13:02:32.406Z,13.70
2019-01-21T13:05:05.230Z,13.10
2019-01-21T13:07:38.188Z,13.70
2019-01-21T13:10:09.608Z,12.17
2019-01-21T13:12:42.397Z,11.77
2019-01-21T13:15:13.577Z,11.40
2019-01-21T13:17:47.262Z,13.23
2019-01-21T13:20:20.145Z,13.90
2019-01-21T13:22:53.833Z,13.53
2019-01-21T13:25:26.798Z,12.70
2019-01-21T13:28:02.403Z,14.57
2019-01-21T13:30:37.078Z,12.90
2019-01-21T13:33:11.759Z,12.93
2019-01-21T13:35:46.394Z,13.83
2019-01-21T13:38:22.150Z,14.60
2019-01-21T13:40:55.876Z,14.53
2019-01-21T13:43:30.681Z,15.33
2019-01-21T13:46:09.242Z,14.40
2019-01-21T13:48:43.137Z,15.67
2019-01-21T13:51:21.851Z,14.83
2019-01-21T13:53:57.534Z,14.87
2019-01-21T13:56:31.258Z,15.87
2019-01-21T13:59:04.959Z,15.80
2019-01-21T14:01:35.781Z,15.50
2019-01-21T14:04:10.696Z,15.33
2019-01-21T14:06:43.753Z,15.75
2019-01-21T14:09:17.585Z,15.60
2019-01-21T14:11:50.453Z,16.80
2019-01-21T14:14:23.963Z,15.20
2019-01-21T14:16:58.589Z,16.00
2019-01-21T14:19:31.642Z,14.45
2019-01-21T14:22:06.492Z,15.93
2019-01-21T14:24:42.189Z,16.80
2019-01-21T14:27:16.007Z,16.23
2019-01-21T14:29:47.737Z,16.40
2019-01-21T14:32:21.665Z,16.15
2019-01-21T14:34:57.358Z,15.90
2019-01-21T14:37:31.349Z,15.80
2019-01-21T14:40:05.004Z,15.97
2019-01-21T14:42:39.733Z,15.97
2019-01-21T14:45:13.288Z,15.83
2019-01-21T14:47:47.968Z,16.33
2019-01-21T14:50:21.757Z,15.80
2019-01-21T14:52:54.754Z,17.80
2019-01-21T14:55:27.595Z,16.43
2019-01-21T14:58:00.639Z,16.37
2019-01-21T15:00:34.527Z,16.10
2019-01-21T15:03:07.831Z,15.28
2019-01-21T15:05:41.564Z,16.47
2019-01-21T15:08:13.928Z,14.80
2019-01-21T15:10:45.845Z,16.17
2019-01-21T15:13:18.504Z,15.90
2019-01-21T15:15:51.626Z,15.38
2019-01-21T15:18:25.407Z,14.97
2019-01-21T15:20:58.415Z,17.13
2019-01-21T15:23:34.233Z,15.20
2019-01-21T15:26:08.956Z,14.80
2019-01-21T15:28:42.786Z,16.37
2019-01-21T15:31:23.847Z,16.43
2019-01-21T15:33:58.812Z,14.97
2019-01-21T15:36:34.750Z,15.60
2019-01-21T15:39:08.259Z,15.07
2019-01-21T15:41:42.425Z,14.57
2019-01-21T15:44:16.579Z,18.73
2019-01-21T15:46:48.908Z,14.90
2019-01-21T15:49:21.953Z,15.40
2019-01-21T15:51:55.794Z,15.60
2019-01-21T15:54:28.812Z,16.80
2019-01-21T15:57:01.924Z,16.12
2019-01-21T15:59:34.991Z,16.02
2019-01-21T16:02:08.821Z,16.70
2019-01-21T16:04:39.914Z,17.40
2019-01-21T16:07:13.735Z,16.60
2019-01-21T16:09:47.597Z,16.43
2019-01-21T16:12:23.509Z,16.55
2019-01-21T16:14:54.611Z,16.43
2019-01-21T16:17:29.375Z,16.87
2019-01-21T16:20:00.848Z,17.20
2019-01-21T16:22:34.757Z,17.07
2019-01-21T16:25:05.386Z,16.87
2019-01-21T16:27:37.514Z,17.07
2019-01-21T16:30:12.317Z,16.97
2019-01-21T16:32:41.730Z,17.37
2019-01-21T16:35:15.476Z,17.50
2019-01-21T16:37:48.392Z,16.47
2019-01-21T16:40:22.318Z,17.90
2019-01-21T16:42:50.675Z,18.42
2019-01-21T16:45:19.248Z,18.63
2019-01-21T16:47:47.646Z,17.95
2019-01-21T16:50:16.025Z,18.03
2019-01-21T16:52:44.436Z,19.50
2019-01-21T16:55:16.175Z,17.30
2019-01-21T16:57:44.536Z,18.30
2019-01-21T17:00:14.563Z,17.90
2019-01-21T17:02:42.962Z,18.00
2019-01-21T17:05:13.154Z,18.13
2019-01-21T17:07:41.520Z,18.90
2019-01-21T17:10:11.539Z,18.23
2019-01-21T17:12:40.040Z,17.20
2019-01-21T17:15:10.828Z,16.73
2019-01-21T17:17:39.406Z,17.07
2019-01-21T17:20:14.496Z,17.45
2019-01-21T17:22:42.962Z,17.27
2019-01-21T17:25:11.986Z,17.70
2019-01-21T17:27:40.463Z,18.35
2019-01-21T17:30:12.796Z,16.83
2019-01-21T17:32:41.183Z,18.07
2019-01-21T17:35:11.663Z,17.83
2019-01-21T17:37:40.050Z,17.45
2019-01-21T17:40:13.191Z,18.60
2019-01-21T17:42:41.619Z,17.10
2019-01-21T17:45:13.462Z,18.43
2019-01-21T17:47:42.035Z,19.85
2019-01-21T17:50:11.906Z,20.20
2019-01-21T17:52:40.237Z,19.03
2019-01-21T17:55:09.743Z,19.10
2019-01-21T17:57:38.127Z,18.17
2019-01-21T18:00:10.924Z,18.20
2019-01-21T18:02:39.267Z,18.57
2019-01-21T18:05:07.824Z,19.73
2019-01-21T18:07:36.170Z,21.00
2019-01-21T18:10:08.503Z,19.87
2019-01-21T18:12:36.889Z,19.23
2019-01-21T18:15:07.226Z,18.33
2019-01-21T18:17:35.575Z,18.20
2019-01-21T18:20:08.729Z,19.73
2019-01-21T18:22:37.049Z,18.63
2019-01-21T18:25:08.241Z,19.77
2019-01-21T18:27:36.613Z,19.52
2019-01-21T18:30:09.013Z,19.10
2019-01-21T18:32:37.358Z,19.73
2019-01-21T18:35:06.959Z,19.03
2019-01-21T18:37:35.306Z,19.42
2019-01-21T18:40:06.860Z,19.90
2019-01-21T18:42:35.277Z,19.20
2019-01-21T18:45:06.281Z,19.37
2019-01-21T18:47:34.606Z,22.07
2019-01-21T18:50:04.038Z,23.73
2019-01-21T18:52:32.386Z,20.20
2019-01-21T18:55:00.755Z,20.40
2019-01-21T18:57:29.209Z,20.30
2019-01-21T18:59:57.575Z,20.05
2019-01-21T19:02:26.119Z,20.27
2019-01-21T19:04:54.460Z,19.20
2019-01-21T19:07:22.830Z,18.40
2019-01-21T19:09:51.187Z,20.43
2019-01-21T19:12:19.578Z,19.60
2019-01-21T19:14:47.965Z,20.47
2019-01-21T19:17:16.336Z,19.67
2019-01-21T19:19:44.677Z,19.10
2019-01-21T19:22:13.506Z,19.00
2019-01-21T19:24:42.965Z,20.20
2019-01-21T19:27:11.762Z,20.60
2019-01-21T19:29:40.184Z,20.17
2019-01-21T19:32:08.529Z,19.23
2019-01-21T19:34:36.931Z,19.77
2019-01-21T19:37:05.483Z,17.80
2019-01-21T19:39:34.054Z,19.97
2019-01-21T19:42:02.845Z,20.55
2019-01-21T19:44:31.214Z,20.10
2019-01-21T19:46:59.664Z,19.20
2019-01-21T19:49:28.054Z,20.97
2019-01-21T19:52:00.209Z,19.23
2019-01-21T19:54:26.837Z,19.47
2019-01-21T19:56:55.224Z,21.17
2019-01-21T19:59:23.565Z,19.60
2019-01-21T20:01:51.893Z,19.52
2019-01-21T20:04:20.308Z,18.10
2019-01-21T20:06:48.680Z,18.87
2019-01-21T20:09:17.078Z,18.30
2019-01-21T20:11:45.445Z,20.20
2019-01-21T20:14:13.923Z,20.87
2019-01-21T20:16:42.302Z,19.63
2019-01-21T20:19:11.080Z,18.77
2019-01-21T20:21:39.511Z,19.53
2019-01-21T20:24:07.918Z,20.20
2019-01-21T20:26:36.349Z,20.57
2019-01-21T20:29:04.753Z,22.32
2019-01-21T20:31:33.155Z,22.03
2019-01-21T20:34:01.490Z,22.87
2019-01-21T20:36:29.905Z,22.23
2019-01-21T20:38:58.305Z,21.40
2019-01-21T20:41:27.183Z,21.17
2019-01-21T20:43:55.634Z,20.73
2019-01-21T20:46:24.044Z,20.72
2019-01-21T20:48:52.441Z,22.90
2019-01-21T20:51:20.777Z,20.77
2019-01-21T20:53:49.119Z,21.50
2019-01-21T20:56:17.498Z,23.90
2019-01-21T20:58:47.430Z,19.48
2019-01-21T21:01:16.255Z,21.47
2019-01-21T21:03:44.861Z,21.10
2019-01-21T21:06:13.658Z,22.10
2019-01-21T21:08:42.073Z,21.93
2019-01-21T21:11:10.974Z,21.17
2019-01-21T21:13:39.379Z,20.47
2019-01-21T21:16:07.786Z,20.80
2019-01-21T21:18:36.162Z,21.50
2019-01-21T21:21:04.581Z,21.10
2019-01-21T21:23:32.942Z,21.50
2019-01-21T21:26:01.314Z,22.00
2019-01-21T21:28:31.133Z,20.67
2019-01-21T21:30:59.667Z,21.03
2019-01-21T21:33:28.188Z,20.90
2019-01-21T21:35:56.699Z,21.23
2019-01-21T21:38:25.136Z,20.77
2019-01-21T21:40:53.710Z,21.47
2019-01-21T21:43:22.332Z,22.37
2019-01-21T21:45:50.936Z,21.20
2019-01-21T21:48:19.376Z,20.37
2019-01-21T21:50:47.907Z,23.70
2019-01-21T21:53:16.429Z,22.82
2019-01-21T21:55:44.938Z,24.07
2019-01-21T21:58:13.496Z,24.23
2019-01-21T22:00:42.019Z,24.77
2019-01-21T22:03:10.898Z,23.60
2019-01-21T22:05:40.257Z,28.30
2019-01-21T22:08:09.798Z,24.75
2019-01-21T22:10:38.210Z,23.73
2019-01-21T22:13:06.563Z,23.87
2019-01-21T22:15:35.058Z,25.40
2019-01-21T22:18:04.778Z,24.07
2019-01-21T22:20:33.347Z,27.35
2019-01-21T22:23:02.119Z,25.67
2019-01-21T22:25:30.481Z,25.23
2019-01-21T22:27:58.841Z,24.50
2019-01-21T22:30:27.413Z,25.97
2019-01-21T22:32:55.836Z,26.00
2019-01-21T22:35:24.711Z,24.80
2019-01-21T22:37:53.058Z,25.07
2019-01-21T22:40:21.943Z,25.43
2019-01-21T22:42:50.496Z,26.00
2019-01-21T22:45:19.852Z,23.80
2019-01-21T22:47:48.418Z,25.57
2019-01-21T22:50:17.928Z,24.23
2019-01-21T22:52:46.582Z,25.33
2019-01-21T22:55:15.540Z,25.50
2019-01-21T22:57:44.144Z,23.30
2019-01-21T23:00:16.000Z,23.10
2019-01-21T23:02:44.955Z,22.87
2019-01-21T23:05:13.875Z,23.70
2019-01-21T23:07:42.301Z,22.90
2019-01-21T23:10:11.822Z,22.13
2019-01-21T23:12:40.299Z,24.45
2019-01-21T23:15:09.472Z,25.05
2019-01-21T23:17:37.813Z,23.50
2019-01-21T23:20:09.458Z,24.50
2019-01-21T23:22:37.821Z,25.73
2019-01-21T23:25:06.888Z,23.50
2019-01-21T23:27:35.241Z,24.53
2019-01-21T23:30:08.257Z,24.02
2019-01-21T23:32:36.946Z,22.63
2019-01-21T23:35:06.152Z,24.27
2019-01-21T23:37:34.494Z,24.10
2019-01-21T23:40:04.274Z,23.70
2019-01-21T23:42:32.661Z,23.45
2019-01-21T23:45:01.005Z,22.83
2019-01-21T23:47:29.413Z,24.73
2019-01-21T23:49:57.782Z,22.03
2019-01-21T23:52:26.118Z,24.70
2019-01-21T23:54:54.878Z,24.10
2019-01-21T23:57:23.217Z,23.47
2019-01-21T23:59:51.690Z,23.77
